sensor_id;sensor_type;location;lat;lon;timestamp;P1;durP1;ratioP1;P2;durP2;ratioP2
2406;SDS011;37709;53.480;9.688;2022-09-03T00:01:56;2.13;;;0.90;;
2406;SDS011;37709;53.480;9.688;2022-09-03T00:07:16;1.10;;;1.00;;
2406;SDS011;37709;53.480;9.688;2022-09-03T00:09:48;1.90;;;0.90;;
2406;SDS011;37709;53.480;9.688;2022-09-03T00:12:23;1.97;;;1.27;;
2406;SDS011;37709;53.480;9.688;2022-09-03T00:15:03;1.80;;;1.10;;
2406;SDS011;37709;53.480;9.688;2022-09-03T00:17:33;1.10;;;1.00;;
2406;SDS011;37709;53.480;9.688;2022-09-03T00:22:44;1.20;;;0.80;;
2406;SDS011;37709;53.480;9.688;2022-09-03T00:25:34;1.20;;;0.70;;
2406;SDS011;37709;53.480;9.688;2022-09-03T00:28:10;1.57;;;1.00;;
2406;SDS011;37709;53.480;9.688;2022-09-03T00:30:42;1.43;;;0.80;;
2406;SDS011;37709;53.480;9.688;2022-09-03T00:33:19;1.20;;;0.90;;
2406;SDS011;37709;53.480;9.688;2022-09-03T00:38:36;1.23;;;1.13;;
2406;SDS011;37709;53.480;9.688;2022-09-03T00:41:08;1.17;;;0.80;;
2406;SDS011;37709;53.480;9.688;2022-09-03T00:46:46;1.20;;;1.10;;
2406;SDS011;37709;53.480;9.688;2022-09-03T00:49:25;3.13;;;0.90;;
2406;SDS011;37709;53.480;9.688;2022-09-03T01:00:53;2.00;;;1.10;;
2406;SDS011;37709;53.480;9.688;2022-09-03T01:06:06;1.80;;;1.13;;
2406;SDS011;37709;53.480;9.688;2022-09-03T01:14:28;1.07;;;0.73;;
2406;SDS011;37709;53.480;9.688;2022-09-03T01:25:52;1.23;;;1.13;;
2406;SDS011;37709;53.480;9.688;2022-09-03T01:45:32;1.80;;;1.07;;
2406;SDS011;37709;53.480;9.688;2022-09-03T01:53:59;1.50;;;1.00;;
2406;SDS011;37709;53.480;9.688;2022-09-03T01:59:22;2.73;;;0.93;;
2406;SDS011;37709;53.480;9.688;2022-09-03T02:01:54;1.60;;;1.03;;
2406;SDS011;37709;53.480;9.688;2022-09-03T02:04:32;2.40;;;0.93;;
2406;SDS011;37709;53.480;9.688;2022-09-03T02:07:00;2.40;;;1.07;;
2406;SDS011;37709;53.480;9.688;2022-09-03T02:09:28;2.40;;;1.23;;
2406;SDS011;37709;53.480;9.688;2022-09-03T02:12:07;2.07;;;1.17;;
2406;SDS011;37709;53.480;9.688;2022-09-03T02:14:40;1.73;;;0.90;;
2406;SDS011;37709;53.480;9.688;2022-09-03T02:17:08;1.40;;;0.90;;
2406;SDS011;37709;53.480;9.688;2022-09-03T02:19:37;1.07;;;0.97;;
2406;SDS011;37709;53.480;9.688;2022-09-03T02:22:05;1.00;;;0.90;;
2406;SDS011;37709;53.480;9.688;2022-09-03T02:24:33;2.03;;;1.10;;
2406;SDS011;37709;53.480;9.688;2022-09-03T02:27:01;1.93;;;0.83;;
2406;SDS011;37709;53.480;9.688;2022-09-03T02:29:29;1.50;;;1.30;;
2406;SDS011;37709;53.480;9.688;2022-09-03T02:31:58;2.53;;;1.33;;
2406;SDS011;37709;53.480;9.688;2022-09-03T02:34:26;1.40;;;1.27;;
2406;SDS011;37709;53.480;9.688;2022-09-03T02:36:55;1.77;;;1.00;;
2406;SDS011;37709;53.480;9.688;2022-09-03T02:39:22;1.37;;;1.03;;
2406;SDS011;37709;53.480;9.688;2022-09-03T02:41:50;1.40;;;1.00;;
2406;SDS011;37709;53.480;9.688;2022-09-03T02:44:28;1.10;;;1.00;;
2406;SDS011;37709;53.480;9.688;2022-09-03T02:47:00;1.80;;;1.20;;
2406;SDS011;37709;53.480;9.688;2022-09-03T02:49:33;2.03;;;1.33;;
2406;SDS011;37709;53.480;9.688;2022-09-03T02:52:03;1.10;;;1.00;;
2406;SDS011;37709;53.480;9.688;2022-09-03T02:54:32;1.60;;;1.10;;
2406;SDS011;37709;53.480;9.688;2022-09-03T02:57:02;2.60;;;1.17;;
2406;SDS011;37709;53.480;9.688;2022-09-03T02:59:30;1.70;;;1.10;;
2406;SDS011;37709;53.480;9.688;2022-09-03T03:01:57;2.40;;;1.17;;
2406;SDS011;37709;53.480;9.688;2022-09-03T03:04:30;1.30;;;1.20;;
2406;SDS011;37709;53.480;9.688;2022-09-03T03:06:58;1.93;;;1.03;;
2406;SDS011;37709;53.480;9.688;2022-09-03T03:09:26;1.70;;;1.30;;
2406;SDS011;37709;53.480;9.688;2022-09-03T03:11:53;1.30;;;1.20;;
2406;SDS011;37709;53.480;9.688;2022-09-03T03:14:21;2.03;;;1.20;;
2406;SDS011;37709;53.480;9.688;2022-09-03T03:16:50;1.40;;;1.30;;
2406;SDS011;37709;53.480;9.688;2022-09-03T03:19:18;1.30;;;1.20;;
2406;SDS011;37709;53.480;9.688;2022-09-03T03:21:45;2.27;;;1.17;;
2406;SDS011;37709;53.480;9.688;2022-09-03T03:24:13;1.30;;;1.20;;
2406;SDS011;37709;53.480;9.688;2022-09-03T03:26:41;1.50;;;1.20;;
2406;SDS011;37709;53.480;9.688;2022-09-03T03:29:11;1.30;;;1.10;;
2406;SDS011;37709;53.480;9.688;2022-09-03T03:31:41;2.93;;;1.33;;
2406;SDS011;37709;53.480;9.688;2022-09-03T03:34:09;3.13;;;1.30;;
2406;SDS011;37709;53.480;9.688;2022-09-03T03:36:37;1.30;;;1.10;;
2406;SDS011;37709;53.480;9.688;2022-09-03T03:39:04;1.90;;;1.30;;
2406;SDS011;37709;53.480;9.688;2022-09-03T03:41:33;1.77;;;1.20;;
2406;SDS011;37709;53.480;9.688;2022-09-03T03:44:02;1.37;;;1.10;;
2406;SDS011;37709;53.480;9.688;2022-09-03T03:46:33;1.50;;;1.20;;
2406;SDS011;37709;53.480;9.688;2022-09-03T03:49:07;1.70;;;1.43;;
2406;SDS011;37709;53.480;9.688;2022-09-03T03:51:37;1.60;;;1.23;;
2406;SDS011;37709;53.480;9.688;2022-09-03T03:54:05;3.00;;;1.47;;
2406;SDS011;37709;53.480;9.688;2022-09-03T03:56:33;2.50;;;1.77;;
2406;SDS011;37709;53.480;9.688;2022-09-03T03:59:01;1.47;;;1.37;;
2406;SDS011;37709;53.480;9.688;2022-09-03T04:01:29;1.57;;;1.47;;
2406;SDS011;37709;53.480;9.688;2022-09-03T04:03:57;1.77;;;1.40;;
2406;SDS011;37709;53.480;9.688;2022-09-03T04:06:27;2.13;;;1.50;;
2406;SDS011;37709;53.480;9.688;2022-09-03T04:08:54;2.47;;;1.50;;
2406;SDS011;37709;53.480;9.688;2022-09-03T04:11:22;1.40;;;1.30;;
2406;SDS011;37709;53.480;9.688;2022-09-03T04:13:50;1.77;;;1.30;;
2406;SDS011;37709;53.480;9.688;2022-09-03T04:16:20;2.00;;;1.40;;
2406;SDS011;37709;53.480;9.688;2022-09-03T04:18:49;1.40;;;1.30;;
2406;SDS011;37709;53.480;9.688;2022-09-03T04:21:20;1.17;;;1.07;;
2406;SDS011;37709;53.480;9.688;2022-09-03T04:23:50;1.40;;;1.20;;
2406;SDS011;37709;53.480;9.688;2022-09-03T04:26:20;1.80;;;1.30;;
2406;SDS011;37709;53.480;9.688;2022-09-03T04:28:49;2.07;;;1.73;;
2406;SDS011;37709;53.480;9.688;2022-09-03T04:31:19;2.50;;;1.27;;
2406;SDS011;37709;53.480;9.688;2022-09-03T04:33:47;2.00;;;1.30;;
2406;SDS011;37709;53.480;9.688;2022-09-03T04:36:15;1.80;;;1.40;;
2406;SDS011;37709;53.480;9.688;2022-09-03T04:41:36;1.40;;;1.30;;
2406;SDS011;37709;53.480;9.688;2022-09-03T04:44:04;1.50;;;1.40;;
2406;SDS011;37709;53.480;9.688;2022-09-03T04:46:32;3.70;;;1.30;;
2406;SDS011;37709;53.480;9.688;2022-09-03T04:49:00;2.27;;;1.70;;
2406;SDS011;37709;53.480;9.688;2022-09-03T04:51:28;2.63;;;1.57;;
2406;SDS011;37709;53.480;9.688;2022-09-03T04:53:59;1.40;;;1.30;;
2406;SDS011;37709;53.480;9.688;2022-09-03T04:56:31;1.70;;;1.30;;
2406;SDS011;37709;53.480;9.688;2022-09-03T04:59:02;2.53;;;1.40;;
2406;SDS011;37709;53.480;9.688;2022-09-03T05:01:35;1.93;;;1.30;;
2406;SDS011;37709;53.480;9.688;2022-09-03T05:04:06;2.80;;;1.40;;
2406;SDS011;37709;53.480;9.688;2022-09-03T05:06:35;1.40;;;1.30;;
2406;SDS011;37709;53.480;9.688;2022-09-03T05:09:04;1.90;;;1.50;;
2406;SDS011;37709;53.480;9.688;2022-09-03T05:11:32;2.70;;;1.30;;
2406;SDS011;37709;53.480;9.688;2022-09-03T05:13:59;2.63;;;1.20;;
2406;SDS011;37709;53.480;9.688;2022-09-03T05:16:28;2.13;;;1.43;;
2406;SDS011;37709;53.480;9.688;2022-09-03T05:18:57;2.50;;;1.50;;
2406;SDS011;37709;53.480;9.688;2022-09-03T05:21:28;1.30;;;1.20;;
2406;SDS011;37709;53.480;9.688;2022-09-03T05:23:59;2.60;;;1.37;;
2406;SDS011;37709;53.480;9.688;2022-09-03T05:26:28;2.73;;;1.20;;
2406;SDS011;37709;53.480;9.688;2022-09-03T05:28:59;1.50;;;1.40;;
2406;SDS011;37709;53.480;9.688;2022-09-03T05:31:28;1.40;;;1.30;;
2406;SDS011;37709;53.480;9.688;2022-09-03T05:33:58;1.47;;;1.37;;
2406;SDS011;37709;53.480;9.688;2022-09-03T05:36:29;1.53;;;1.13;;
2406;SDS011;37709;53.480;9.688;2022-09-03T05:39:00;4.57;;;1.70;;
2406;SDS011;37709;53.480;9.688;2022-09-03T05:41:29;1.50;;;1.40;;
2406;SDS011;37709;53.480;9.688;2022-09-03T05:47:00;3.37;;;1.10;;
2406;SDS011;37709;53.480;9.688;2022-09-03T05:49:29;1.30;;;1.20;;
2406;SDS011;37709;53.480;9.688;2022-09-03T05:51:57;2.00;;;1.50;;
2406;SDS011;37709;53.480;9.688;2022-09-03T05:54:25;1.53;;;1.20;;
2406;SDS011;37709;53.480;9.688;2022-09-03T05:56:53;1.20;;;1.10;;
2406;SDS011;37709;53.480;9.688;2022-09-03T05:59:21;1.50;;;1.27;;
2406;SDS011;37709;53.480;9.688;2022-09-03T06:01:48;3.63;;;1.30;;
2406;SDS011;37709;53.480;9.688;2022-09-03T06:04:21;1.40;;;1.30;;
2406;SDS011;37709;53.480;9.688;2022-09-03T06:06:48;3.40;;;1.80;;
2406;SDS011;37709;53.480;9.688;2022-09-03T06:09:17;1.30;;;1.20;;
2406;SDS011;37709;53.480;9.688;2022-09-03T06:11:46;2.33;;;1.20;;
2406;SDS011;37709;53.480;9.688;2022-09-03T06:14:17;1.50;;;1.30;;
2406;SDS011;37709;53.480;9.688;2022-09-03T06:16:45;1.57;;;1.20;;
2406;SDS011;37709;53.480;9.688;2022-09-03T06:19:15;2.03;;;1.30;;
2406;SDS011;37709;53.480;9.688;2022-09-03T06:21:44;2.90;;;1.47;;
2406;SDS011;37709;53.480;9.688;2022-09-03T06:24:19;1.93;;;1.47;;
2406;SDS011;37709;53.480;9.688;2022-09-03T06:26:56;1.83;;;1.37;;
2406;SDS011;37709;53.480;9.688;2022-09-03T06:29:25;2.70;;;1.47;;
2406;SDS011;37709;53.480;9.688;2022-09-03T06:31:53;2.20;;;1.37;;
2406;SDS011;37709;53.480;9.688;2022-09-03T06:34:26;2.30;;;1.40;;
2406;SDS011;37709;53.480;9.688;2022-09-03T06:36:54;1.40;;;1.10;;
2406;SDS011;37709;53.480;9.688;2022-09-03T06:39:21;4.17;;;1.50;;
2406;SDS011;37709;53.480;9.688;2022-09-03T06:41:49;1.80;;;1.17;;
2406;SDS011;37709;53.480;9.688;2022-09-03T06:44:25;1.10;;;1.00;;
2406;SDS011;37709;53.480;9.688;2022-09-03T06:46:52;1.30;;;1.00;;
2406;SDS011;37709;53.480;9.688;2022-09-03T06:49:20;2.53;;;0.90;;
2406;SDS011;37709;53.480;9.688;2022-09-03T06:51:48;2.47;;;1.30;;
2406;SDS011;37709;53.480;9.688;2022-09-03T06:54:15;2.77;;;1.30;;
2406;SDS011;37709;53.480;9.688;2022-09-03T06:56:43;2.00;;;1.20;;
2406;SDS011;37709;53.480;9.688;2022-09-03T06:59:13;3.03;;;1.23;;
2406;SDS011;37709;53.480;9.688;2022-09-03T07:01:41;1.63;;;1.10;;
2406;SDS011;37709;53.480;9.688;2022-09-03T07:04:12;1.30;;;1.00;;
2406;SDS011;37709;53.480;9.688;2022-09-03T07:06:42;2.57;;;1.60;;
2406;SDS011;37709;53.480;9.688;2022-09-03T07:09:13;1.50;;;1.00;;
2406;SDS011;37709;53.480;9.688;2022-09-03T07:11:44;1.50;;;0.90;;
2406;SDS011;37709;53.480;9.688;2022-09-03T07:14:16;1.93;;;1.10;;
2406;SDS011;37709;53.480;9.688;2022-09-03T07:16:47;2.40;;;1.40;;
2406;SDS011;37709;53.480;9.688;2022-09-03T07:19:15;3.30;;;1.20;;
2406;SDS011;37709;53.480;9.688;2022-09-03T07:21:43;1.40;;;1.30;;
2406;SDS011;37709;53.480;9.688;2022-09-03T07:24:22;1.63;;;1.07;;
2406;SDS011;37709;53.480;9.688;2022-09-03T07:26:50;1.93;;;1.00;;
2406;SDS011;37709;53.480;9.688;2022-09-03T07:29:18;1.77;;;1.03;;
2406;SDS011;37709;53.480;9.688;2022-09-03T07:31:47;1.50;;;1.20;;
2406;SDS011;37709;53.480;9.688;2022-09-03T07:34:18;1.30;;;0.97;;
2406;SDS011;37709;53.480;9.688;2022-09-03T07:36:48;2.20;;;1.20;;
2406;SDS011;37709;53.480;9.688;2022-09-03T07:39:17;2.00;;;0.97;;
2406;SDS011;37709;53.480;9.688;2022-09-03T07:41:46;1.13;;;1.03;;
2406;SDS011;37709;53.480;9.688;2022-09-03T07:44:18;1.30;;;1.10;;
2406;SDS011;37709;53.480;9.688;2022-09-03T07:46:46;1.97;;;1.00;;
2406;SDS011;37709;53.480;9.688;2022-09-03T07:49:17;2.80;;;1.03;;
2406;SDS011;37709;53.480;9.688;2022-09-03T07:51:47;1.20;;;1.00;;
2406;SDS011;37709;53.480;9.688;2022-09-03T07:54:18;3.07;;;1.00;;
2406;SDS011;37709;53.480;9.688;2022-09-03T07:56:47;1.83;;;1.10;;
2406;SDS011;37709;53.480;9.688;2022-09-03T07:59:14;2.03;;;1.10;;
2406;SDS011;37709;53.480;9.688;2022-09-03T08:01:42;2.10;;;1.53;;
2406;SDS011;37709;53.480;9.688;2022-09-03T08:04:10;1.40;;;0.90;;
2406;SDS011;37709;53.480;9.688;2022-09-03T08:06:42;1.20;;;0.83;;
2406;SDS011;37709;53.480;9.688;2022-09-03T08:09:10;2.00;;;1.10;;
2406;SDS011;37709;53.480;9.688;2022-09-03T08:11:40;1.80;;;1.10;;
2406;SDS011;37709;53.480;9.688;2022-09-03T08:14:10;3.40;;;1.27;;
2406;SDS011;37709;53.480;9.688;2022-09-03T08:16:41;1.70;;;0.80;;
2406;SDS011;37709;53.480;9.688;2022-09-03T08:19:10;1.57;;;1.00;;
2406;SDS011;37709;53.480;9.688;2022-09-03T08:21:39;1.07;;;0.90;;
2406;SDS011;37709;53.480;9.688;2022-09-03T08:24:14;1.63;;;0.90;;
2406;SDS011;37709;53.480;9.688;2022-09-03T08:26:42;5.50;;;1.43;;
2406;SDS011;37709;53.480;9.688;2022-09-03T08:29:18;2.87;;;1.20;;
2406;SDS011;37709;53.480;9.688;2022-09-03T08:31:46;2.43;;;1.20;;
2406;SDS011;37709;53.480;9.688;2022-09-03T08:34:14;1.43;;;1.20;;
2406;SDS011;37709;53.480;9.688;2022-09-03T08:36:44;1.70;;;0.97;;
2406;SDS011;37709;53.480;9.688;2022-09-03T08:42:27;2.07;;;1.10;;
2406;SDS011;37709;53.480;9.688;2022-09-03T08:45:04;1.50;;;0.97;;
2406;SDS011;37709;53.480;9.688;2022-09-03T08:47:39;1.67;;;0.90;;
2406;SDS011;37709;53.480;9.688;2022-09-03T08:53:20;2.90;;;1.00;;
2406;SDS011;37709;53.480;9.688;2022-09-03T08:56:00;1.83;;;1.30;;
2406;SDS011;37709;53.480;9.688;2022-09-03T08:58:34;1.50;;;0.90;;
2406;SDS011;37709;53.480;9.688;2022-09-03T09:01:13;1.70;;;1.10;;
2406;SDS011;37709;53.480;9.688;2022-09-03T09:07:06;1.90;;;1.10;;
2406;SDS011;37709;53.480;9.688;2022-09-03T09:09:49;1.53;;;1.10;;
2406;SDS011;37709;53.480;9.688;2022-09-03T09:18:08;1.27;;;1.00;;
2406;SDS011;37709;53.480;9.688;2022-09-03T09:20:43;2.00;;;0.87;;
2406;SDS011;37709;53.480;9.688;2022-09-03T09:23:23;2.23;;;1.07;;
2406;SDS011;37709;53.480;9.688;2022-09-03T09:26:14;1.00;;;0.90;;
2406;SDS011;37709;53.480;9.688;2022-09-03T09:28:52;1.33;;;0.90;;
2406;SDS011;37709;53.480;9.688;2022-09-03T09:31:27;1.30;;;0.90;;
2406;SDS011;37709;53.480;9.688;2022-09-03T09:34:02;1.23;;;1.00;;
2406;SDS011;37709;53.480;9.688;2022-09-03T09:36:41;2.13;;;1.23;;
2406;SDS011;37709;53.480;9.688;2022-09-03T09:39:13;0.93;;;0.87;;
2406;SDS011;37709;53.480;9.688;2022-09-03T09:42:05;1.23;;;0.97;;
2406;SDS011;37709;53.480;9.688;2022-09-03T09:44:36;1.10;;;0.90;;
2406;SDS011;37709;53.480;9.688;2022-09-03T09:47:14;1.10;;;1.00;;
2406;SDS011;37709;53.480;9.688;2022-09-03T09:49:52;3.40;;;0.90;;
2406;SDS011;37709;53.480;9.688;2022-09-03T09:52:20;2.30;;;0.97;;
2406;SDS011;37709;53.480;9.688;2022-09-03T09:54:52;3.40;;;1.30;;
2406;SDS011;37709;53.480;9.688;2022-09-03T09:57:30;1.20;;;0.83;;
2406;SDS011;37709;53.480;9.688;2022-09-03T10:02:38;3.00;;;1.20;;
2406;SDS011;37709;53.480;9.688;2022-09-03T10:05:14;1.50;;;1.00;;
2406;SDS011;37709;53.480;9.688;2022-09-03T10:07:56;1.27;;;0.90;;
2406;SDS011;37709;53.480;9.688;2022-09-03T10:10:25;2.03;;;0.90;;
2406;SDS011;37709;53.480;9.688;2022-09-03T10:15:59;2.00;;;0.90;;
2406;SDS011;37709;53.480;9.688;2022-09-03T10:21:10;1.97;;;1.27;;
2406;SDS011;37709;53.480;9.688;2022-09-03T10:23:50;2.50;;;0.90;;
2406;SDS011;37709;53.480;9.688;2022-09-03T10:26:24;4.00;;;1.03;;
2406;SDS011;37709;53.480;9.688;2022-09-03T10:29:01;1.83;;;0.80;;
2406;SDS011;37709;53.480;9.688;2022-09-03T10:31:34;2.90;;;0.80;;
2406;SDS011;37709;53.480;9.688;2022-09-03T10:34:15;1.30;;;1.00;;
2406;SDS011;37709;53.480;9.688;2022-09-03T10:43:13;1.73;;;0.93;;
2406;SDS011;37709;53.480;9.688;2022-09-03T10:45:57;1.30;;;1.00;;
2406;SDS011;37709;53.480;9.688;2022-09-03T10:51:35;2.60;;;0.90;;
2406;SDS011;37709;53.480;9.688;2022-09-03T11:00:07;1.10;;;0.93;;
2406;SDS011;37709;53.480;9.688;2022-09-03T11:05:53;0.93;;;0.70;;
2406;SDS011;37709;53.480;9.688;2022-09-03T11:11:12;1.07;;;0.87;;
2406;SDS011;37709;53.480;9.688;2022-09-03T11:13:47;4.00;;;1.00;;
2406;SDS011;37709;53.480;9.688;2022-09-03T11:16:27;1.73;;;0.80;;
2406;SDS011;37709;53.480;9.688;2022-09-03T11:19:01;3.77;;;1.03;;
2406;SDS011;37709;53.480;9.688;2022-09-03T11:21:34;1.67;;;1.07;;
2406;SDS011;37709;53.480;9.688;2022-09-03T11:24:13;2.37;;;0.90;;
2406;SDS011;37709;53.480;9.688;2022-09-03T11:26:50;1.37;;;1.10;;
2406;SDS011;37709;53.480;9.688;2022-09-03T11:29:31;1.37;;;0.80;;
2406;SDS011;37709;53.480;9.688;2022-09-03T11:32:04;1.30;;;1.20;;
2406;SDS011;37709;53.480;9.688;2022-09-03T11:34:44;3.27;;;0.93;;
2406;SDS011;37709;53.480;9.688;2022-09-03T11:37:31;2.63;;;0.70;;
2406;SDS011;37709;53.480;9.688;2022-09-03T11:42:39;2.17;;;1.10;;
2406;SDS011;37709;53.480;9.688;2022-09-03T11:47:54;1.53;;;0.80;;
2406;SDS011;37709;53.480;9.688;2022-09-03T11:55:59;2.03;;;1.10;;
2406;SDS011;37709;53.480;9.688;2022-09-03T11:58:36;1.80;;;1.00;;
2406;SDS011;37709;53.480;9.688;2022-09-03T12:01:12;1.43;;;0.63;;
2406;SDS011;37709;53.480;9.688;2022-09-03T12:03:53;1.30;;;0.87;;
2406;SDS011;37709;53.480;9.688;2022-09-03T12:06:37;3.87;;;0.90;;
2406;SDS011;37709;53.480;9.688;2022-09-03T12:09:30;3.27;;;1.10;;
2406;SDS011;37709;53.480;9.688;2022-09-03T12:15:06;1.33;;;1.00;;
2406;SDS011;37709;53.480;9.688;2022-09-03T12:17:51;1.50;;;0.83;;
2406;SDS011;37709;53.480;9.688;2022-09-03T12:20:42;1.80;;;1.10;;
2406;SDS011;37709;53.480;9.688;2022-09-03T12:23:11;2.93;;;0.97;;
2406;SDS011;37709;53.480;9.688;2022-09-03T12:25:44;1.10;;;0.80;;
2406;SDS011;37709;53.480;9.688;2022-09-03T12:28:19;1.97;;;0.80;;
2406;SDS011;37709;53.480;9.688;2022-09-03T12:30:51;2.17;;;0.90;;
2406;SDS011;37709;53.480;9.688;2022-09-03T12:33:20;1.33;;;0.97;;
2406;SDS011;37709;53.480;9.688;2022-09-03T12:35:55;3.60;;;0.80;;
2406;SDS011;37709;53.480;9.688;2022-09-03T12:38:25;1.57;;;0.87;;
2406;SDS011;37709;53.480;9.688;2022-09-03T12:40:53;2.40;;;1.07;;
2406;SDS011;37709;53.480;9.688;2022-09-03T12:43:48;2.20;;;1.03;;
2406;SDS011;37709;53.480;9.688;2022-09-03T12:46:18;3.87;;;0.90;;
2406;SDS011;37709;53.480;9.688;2022-09-03T12:49:03;0.80;;;0.80;;
2406;SDS011;37709;53.480;9.688;2022-09-03T12:51:57;1.13;;;0.90;;
2406;SDS011;37709;53.480;9.688;2022-09-03T12:54:33;1.03;;;0.93;;
2406;SDS011;37709;53.480;9.688;2022-09-03T12:57:02;1.50;;;1.10;;
2406;SDS011;37709;53.480;9.688;2022-09-03T12:59:31;3.00;;;1.30;;
2406;SDS011;37709;53.480;9.688;2022-09-03T13:02:04;2.00;;;1.00;;
2406;SDS011;37709;53.480;9.688;2022-09-03T13:04:43;2.90;;;1.23;;
2406;SDS011;37709;53.480;9.688;2022-09-03T13:07:26;1.53;;;0.97;;
2406;SDS011;37709;53.480;9.688;2022-09-03T13:10:00;1.80;;;0.93;;
2406;SDS011;37709;53.480;9.688;2022-09-03T13:12:42;1.00;;;0.80;;
2406;SDS011;37709;53.480;9.688;2022-09-03T13:15:22;2.10;;;1.00;;
2406;SDS011;37709;53.480;9.688;2022-09-03T13:18:02;1.83;;;1.27;;
2406;SDS011;37709;53.480;9.688;2022-09-03T13:21:14;1.40;;;1.00;;
2406;SDS011;37709;53.480;9.688;2022-09-03T13:24:07;1.40;;;1.10;;
2406;SDS011;37709;53.480;9.688;2022-09-03T13:26:54;1.53;;;0.60;;
2406;SDS011;37709;53.480;9.688;2022-09-03T13:32:27;1.47;;;1.10;;
2406;SDS011;37709;53.480;9.688;2022-09-03T13:35:14;2.23;;;0.90;;
2406;SDS011;37709;53.480;9.688;2022-09-03T13:40:53;1.40;;;1.30;;
2406;SDS011;37709;53.480;9.688;2022-09-03T13:43:34;1.40;;;1.10;;
2406;SDS011;37709;53.480;9.688;2022-09-03T13:46:10;2.03;;;1.17;;
2406;SDS011;37709;53.480;9.688;2022-09-03T13:48:43;1.10;;;1.00;;
2406;SDS011;37709;53.480;9.688;2022-09-03T13:51:36;1.97;;;1.27;;
2406;SDS011;37709;53.480;9.688;2022-09-03T13:54:26;3.90;;;1.10;;
2406;SDS011;37709;53.480;9.688;2022-09-03T14:00:29;2.73;;;0.77;;
2406;SDS011;37709;53.480;9.688;2022-09-03T14:12:03;2.23;;;1.17;;
2406;SDS011;37709;53.480;9.688;2022-09-03T14:14:53;3.87;;;1.30;;
2406;SDS011;37709;53.480;9.688;2022-09-03T14:20:16;2.10;;;1.13;;
2406;SDS011;37709;53.480;9.688;2022-09-03T14:25:55;2.43;;;1.20;;
2406;SDS011;37709;53.480;9.688;2022-09-03T14:28:27;2.00;;;1.27;;
2406;SDS011;37709;53.480;9.688;2022-09-03T14:33:36;3.30;;;1.10;;
2406;SDS011;37709;53.480;9.688;2022-09-03T14:39:16;1.20;;;1.00;;
2406;SDS011;37709;53.480;9.688;2022-09-03T14:44:50;3.83;;;1.20;;
2406;SDS011;37709;53.480;9.688;2022-09-03T14:47:55;1.30;;;1.00;;
2406;SDS011;37709;53.480;9.688;2022-09-03T14:50:54;1.60;;;1.10;;
2406;SDS011;37709;53.480;9.688;2022-09-03T14:56:58;2.10;;;1.20;;
2406;SDS011;37709;53.480;9.688;2022-09-03T15:11:15;1.70;;;1.30;;
2406;SDS011;37709;53.480;9.688;2022-09-03T15:13:47;5.17;;;1.67;;
2406;SDS011;37709;53.480;9.688;2022-09-03T15:16:42;2.80;;;1.40;;
2406;SDS011;37709;53.480;9.688;2022-09-03T15:31:20;2.50;;;1.00;;
2406;SDS011;37709;53.480;9.688;2022-09-03T15:36:50;2.20;;;0.80;;
2406;SDS011;37709;53.480;9.688;2022-09-03T15:39:22;4.40;;;1.03;;
2406;SDS011;37709;53.480;9.688;2022-09-03T15:41:57;1.80;;;1.03;;
2406;SDS011;37709;53.480;9.688;2022-09-03T15:44:33;2.20;;;1.10;;
2406;SDS011;37709;53.480;9.688;2022-09-03T15:47:27;1.30;;;1.00;;
2406;SDS011;37709;53.480;9.688;2022-09-03T15:50:31;3.20;;;0.90;;
2406;SDS011;37709;53.480;9.688;2022-09-03T15:53:18;2.33;;;0.93;;
2406;SDS011;37709;53.480;9.688;2022-09-03T15:56:07;1.20;;;1.03;;
2406;SDS011;37709;53.480;9.688;2022-09-03T16:07:09;3.00;;;1.30;;
2406;SDS011;37709;53.480;9.688;2022-09-03T16:15:46;2.20;;;1.00;;
2406;SDS011;37709;53.480;9.688;2022-09-03T16:18:40;1.27;;;1.00;;
2406;SDS011;37709;53.480;9.688;2022-09-03T16:23:58;1.20;;;1.10;;
2406;SDS011;37709;53.480;9.688;2022-09-03T16:26:53;1.00;;;0.90;;
2406;SDS011;37709;53.480;9.688;2022-09-03T16:29:37;2.40;;;1.10;;
2406;SDS011;37709;53.480;9.688;2022-09-03T16:32:14;1.40;;;1.20;;
2406;SDS011;37709;53.480;9.688;2022-09-03T16:38:01;3.07;;;1.23;;
2406;SDS011;37709;53.480;9.688;2022-09-03T16:40:56;2.07;;;1.40;;
2406;SDS011;37709;53.480;9.688;2022-09-03T16:46:34;1.20;;;0.83;;
2406;SDS011;37709;53.480;9.688;2022-09-03T16:49:24;3.33;;;1.13;;
2406;SDS011;37709;53.480;9.688;2022-09-03T16:51:55;2.90;;;0.80;;
2406;SDS011;37709;53.480;9.688;2022-09-03T16:54:45;2.87;;;1.40;;
2406;SDS011;37709;53.480;9.688;2022-09-03T16:57:45;1.80;;;1.40;;
2406;SDS011;37709;53.480;9.688;2022-09-03T17:00:39;2.17;;;1.10;;
2406;SDS011;37709;53.480;9.688;2022-09-03T17:06:27;2.63;;;1.60;;
2406;SDS011;37709;53.480;9.688;2022-09-03T17:12:14;1.57;;;1.30;;
2406;SDS011;37709;53.480;9.688;2022-09-03T17:20:13;2.07;;;1.30;;
2406;SDS011;37709;53.480;9.688;2022-09-03T17:31:08;2.07;;;1.10;;
2406;SDS011;37709;53.480;9.688;2022-09-03T17:33:54;2.43;;;1.00;;
2406;SDS011;37709;53.480;9.688;2022-09-03T17:36:24;1.80;;;0.90;;
2406;SDS011;37709;53.480;9.688;2022-09-03T17:41:51;1.77;;;1.20;;
2406;SDS011;37709;53.480;9.688;2022-09-03T17:44:36;3.67;;;1.47;;
2406;SDS011;37709;53.480;9.688;2022-09-03T17:47:46;1.90;;;1.03;;
2406;SDS011;37709;53.480;9.688;2022-09-03T17:50:27;3.13;;;1.30;;
2406;SDS011;37709;53.480;9.688;2022-09-03T17:53:00;1.70;;;1.60;;
2406;SDS011;37709;53.480;9.688;2022-09-03T17:55:37;2.60;;;1.00;;
2406;SDS011;37709;53.480;9.688;2022-09-03T17:58:26;2.50;;;1.00;;
2406;SDS011;37709;53.480;9.688;2022-09-03T18:01:02;1.20;;;0.90;;
2406;SDS011;37709;53.480;9.688;2022-09-03T18:03:54;2.87;;;1.10;;
2406;SDS011;37709;53.480;9.688;2022-09-03T18:09:17;3.73;;;1.17;;
2406;SDS011;37709;53.480;9.688;2022-09-03T18:12:10;1.33;;;1.20;;
2406;SDS011;37709;53.480;9.688;2022-09-03T18:20:26;2.87;;;1.50;;
2406;SDS011;37709;53.480;9.688;2022-09-03T18:23:44;1.30;;;1.10;;
2406;SDS011;37709;53.480;9.688;2022-09-03T18:26:42;1.83;;;1.30;;
2406;SDS011;37709;53.480;9.688;2022-09-03T18:29:44;2.00;;;1.33;;
2406;SDS011;37709;53.480;9.688;2022-09-03T18:32:38;2.50;;;1.50;;
2406;SDS011;37709;53.480;9.688;2022-09-03T18:35:24;3.17;;;1.40;;
2406;SDS011;37709;53.480;9.688;2022-09-03T18:38:17;2.77;;;1.27;;
2406;SDS011;37709;53.480;9.688;2022-09-03T18:50:57;1.90;;;1.47;;
2406;SDS011;37709;53.480;9.688;2022-09-03T18:53:58;2.27;;;1.50;;
2406;SDS011;37709;53.480;9.688;2022-09-03T18:57:25;1.57;;;1.47;;
2406;SDS011;37709;53.480;9.688;2022-09-03T19:00:38;2.33;;;1.40;;
2406;SDS011;37709;53.480;9.688;2022-09-03T19:03:58;2.53;;;1.50;;
2406;SDS011;37709;53.480;9.688;2022-09-03T19:07:06;2.30;;;1.60;;
2406;SDS011;37709;53.480;9.688;2022-09-03T19:15:48;1.73;;;1.47;;
2406;SDS011;37709;53.480;9.688;2022-09-03T19:22:03;3.53;;;1.30;;
2406;SDS011;37709;53.480;9.688;2022-09-03T19:25:06;1.80;;;1.60;;
2406;SDS011;37709;53.480;9.688;2022-09-03T19:27:59;2.60;;;1.63;;
2406;SDS011;37709;53.480;9.688;2022-09-03T19:33:59;2.87;;;1.60;;
2406;SDS011;37709;53.480;9.688;2022-09-03T19:37:07;2.67;;;1.70;;
2406;SDS011;37709;53.480;9.688;2022-09-03T19:43:16;3.50;;;1.93;;
2406;SDS011;37709;53.480;9.688;2022-09-03T19:46:21;2.00;;;1.70;;
2406;SDS011;37709;53.480;9.688;2022-09-03T19:49:42;2.60;;;1.60;;
2406;SDS011;37709;53.480;9.688;2022-09-03T19:52:56;2.80;;;1.90;;
2406;SDS011;37709;53.480;9.688;2022-09-03T19:55:52;2.20;;;2.00;;
2406;SDS011;37709;53.480;9.688;2022-09-03T19:58:40;2.20;;;1.80;;
2406;SDS011;37709;53.480;9.688;2022-09-03T20:01:35;2.37;;;1.60;;
2406;SDS011;37709;53.480;9.688;2022-09-03T20:04:30;3.23;;;1.60;;
2406;SDS011;37709;53.480;9.688;2022-09-03T20:07:26;2.53;;;1.70;;
2406;SDS011;37709;53.480;9.688;2022-09-03T20:10:13;3.47;;;1.83;;
2406;SDS011;37709;53.480;9.688;2022-09-03T20:15:32;1.50;;;1.40;;
2406;SDS011;37709;53.480;9.688;2022-09-03T20:18:20;6.37;;;1.70;;
2406;SDS011;37709;53.480;9.688;2022-09-03T20:21:09;3.00;;;1.63;;
2406;SDS011;37709;53.480;9.688;2022-09-03T20:31:47;2.97;;;1.90;;
2406;SDS011;37709;53.480;9.688;2022-09-03T20:34:30;2.00;;;1.40;;
2406;SDS011;37709;53.480;9.688;2022-09-03T20:37:08;1.80;;;1.70;;
2406;SDS011;37709;53.480;9.688;2022-09-03T20:42:32;3.10;;;1.90;;